sensor_id;sensor_type;location;lat;lon;timestamp;pressure;altitude;pressure_sealevel;temperature;humidity
6136;BME280;24008;42.664;23.372;2023-02-16T00:01:20;95996.69;;;-1.11;90.95
6136;BME280;24008;42.664;23.372;2023-02-16T00:03:47;95788.69;;;-2.44;91.04
6136;BME280;24008;42.664;23.372;2023-02-16T00:06:14;95966.31;;;-1.33;91.66
6136;BME280;24008;42.664;23.372;2023-02-16T00:08:46;95997.53;;;-1.12;91.76
6136;BME280;24008;42.664;23.372;2023-02-16T00:11:20;96010.16;;;-1.15;91.36
6136;BME280;24008;42.664;23.372;2023-02-16T00:14:07;96000.13;;;-1.15;91.68
6136;BME280;24008;42.664;23.372;2023-02-16T00:16:35;95973.69;;;-1.28;92.01
6136;BME280;24008;42.664;23.372;2023-02-16T00:19:14;95967.00;;;-1.28;92.22
6136;BME280;24008;42.664;23.372;2023-02-16T00:21:41;95991.81;;;-1.17;91.37
6136;BME280;24008;42.664;23.372;2023-02-16T00:24:08;95991.81;;;-1.17;91.43
6136;BME280;24008;42.664;23.372;2023-02-16T00:26:35;95990.25;;;-1.21;91.32
6136;BME280;24008;42.664;23.372;2023-02-16T00:29:02;95993.63;;;-1.22;91.74
6136;BME280;24008;42.664;23.372;2023-02-16T00:31:31;96026.25;;;-1.24;91.16
6136;BME280;24008;42.664;23.372;2023-02-16T00:33:58;95918.00;;;-1.72;91.41
6136;BME280;24008;42.664;23.372;2023-02-16T00:36:25;95994.69;;;-1.32;91.56
6136;BME280;24008;42.664;23.372;2023-02-16T00:38:52;95997.19;;;-1.32;91.87
6136;BME280;24008;42.664;23.372;2023-02-16T00:41:21;95995.78;;;-1.42;91.70
6136;BME280;24008;42.664;23.372;2023-02-16T00:44:11;95907.81;;;-2.00;91.62
6136;BME280;24008;42.664;23.372;2023-02-16T00:46:41;95990.25;;;-1.55;91.56
6136;BME280;24008;42.664;23.372;2023-02-16T00:49:12;95988.75;;;-1.61;91.85
6136;BME280;24008;42.664;23.372;2023-02-16T00:51:38;95992.97;;;-1.63;91.98
6136;BME280;24008;42.664;23.372;2023-02-16T00:54:05;95992.19;;;-1.66;92.04
6136;BME280;24008;42.664;23.372;2023-02-16T00:56:32;95991.38;;;-1.67;92.31
6136;BME280;24008;42.664;23.372;2023-02-16T00:58:59;95991.38;;;-1.67;92.38
6136;BME280;24008;42.664;23.372;2023-02-16T01:01:29;95990.66;;;-1.70;92.37
6136;BME280;24008;42.664;23.372;2023-02-16T01:04:00;95990.75;;;-1.75;92.69
6136;BME280;24008;42.664;23.372;2023-02-16T01:06:28;95990.69;;;-1.72;92.24
6136;BME280;24008;42.664;23.372;2023-02-16T01:09:14;95986.59;;;-1.76;92.81
6136;BME280;24008;42.664;23.372;2023-02-16T01:12:00;95947.88;;;-1.98;93.11
6136;BME280;24008;42.664;23.372;2023-02-16T01:14:28;95974.94;;;-1.78;93.36
6136;BME280;24008;42.664;23.372;2023-02-16T01:16:56;95980.84;;;-1.81;93.51
6136;BME280;24008;42.664;23.372;2023-02-16T01:19:25;95971.78;;;-1.85;93.63
6136;BME280;24008;42.664;23.372;2023-02-16T01:21:51;95937.22;;;-2.06;93.44
6136;BME280;24008;42.664;23.372;2023-02-16T01:24:18;95964.94;;;-1.80;94.04
6136;BME280;24008;42.664;23.372;2023-02-16T01:26:46;95963.19;;;-1.75;93.50
6136;BME280;24008;42.664;23.372;2023-02-16T01:29:16;95964.84;;;-1.75;93.82
6136;BME280;24008;42.664;23.372;2023-02-16T01:31:44;95901.63;;;-2.19;93.61
6136;BME280;24008;42.664;23.372;2023-02-16T01:34:11;95958.16;;;-1.75;94.09
6136;BME280;24008;42.664;23.372;2023-02-16T01:36:41;95914.50;;;-2.00;93.70
6136;BME280;24008;42.664;23.372;2023-02-16T01:39:11;95928.53;;;-1.93;93.59
6136;BME280;24008;42.664;23.372;2023-02-16T01:41:55;95957.41;;;-1.78;93.41
6136;BME280;24008;42.664;23.372;2023-02-16T01:44:28;95957.56;;;-1.85;93.26
6136;BME280;24008;42.664;23.372;2023-02-16T01:47:03;95905.63;;;-2.13;93.14
6136;BME280;24008;42.664;23.372;2023-02-16T01:49:33;95886.75;;;-2.27;92.39
6136;BME280;24008;42.664;23.372;2023-02-16T01:52:05;95950.31;;;-1.95;92.41
6136;BME280;24008;42.664;23.372;2023-02-16T01:54:38;95915.84;;;-2.21;92.32
6136;BME280;24008;42.664;23.372;2023-02-16T01:57:18;95948.78;;;-2.02;92.63
6136;BME280;24008;42.664;23.372;2023-02-16T02:00:12;95940.69;;;-2.13;92.98
6136;BME280;24008;42.664;23.372;2023-02-16T02:02:40;95948.94;;;-2.08;93.04
6136;BME280;24008;42.664;23.372;2023-02-16T02:05:26;95876.41;;;-2.48;93.05
6136;BME280;24008;42.664;23.372;2023-02-16T02:08:22;95917.56;;;-2.23;93.36
6136;BME280;24008;42.664;23.372;2023-02-16T02:11:00;95845.34;;;-2.77;93.23
6136;BME280;24008;42.664;23.372;2023-02-16T02:13:31;95941.56;;;-2.14;93.65
6136;BME280;24008;42.664;23.372;2023-02-16T02:16:03;95949.03;;;-2.13;93.30
6136;BME280;24008;42.664;23.372;2023-02-16T02:18:31;95913.59;;;-2.32;93.30
6136;BME280;24008;42.664;23.372;2023-02-16T02:21:21;95869.31;;;-2.67;93.56
6136;BME280;24008;42.664;23.372;2023-02-16T02:24:33;95903.75;;;-2.41;93.63
6136;BME280;24008;42.664;23.372;2023-02-16T02:27:15;95873.31;;;-2.60;93.67
6136;BME280;24008;42.664;23.372;2023-02-16T02:30:12;95925.13;;;-2.26;94.05
6136;BME280;24008;42.664;23.372;2023-02-16T02:32:52;95933.19;;;-2.13;94.43
6136;BME280;24008;42.664;23.372;2023-02-16T02:35:28;95935.69;;;-2.13;94.19
6136;BME280;24008;42.664;23.372;2023-02-16T02:38:05;95903.75;;;-2.41;94.14
6136;BME280;24008;42.664;23.372;2023-02-16T02:40:43;95907.81;;;-2.35;94.21
6136;BME280;24008;42.664;23.372;2023-02-16T02:43:18;95938.38;;;-2.21;94.47
6136;BME280;24008;42.664;23.372;2023-02-16T02:45:49;95933.44;;;-2.24;93.82
6136;BME280;24008;42.664;23.372;2023-02-16T02:48:17;95939.31;;;-2.27;94.05
6136;BME280;24008;42.664;23.372;2023-02-16T02:50:48;95931.81;;;-2.27;94.22
6136;BME280;24008;42.664;23.372;2023-02-16T02:53:34;95939.31;;;-2.27;94.80
6136;BME280;24008;42.664;23.372;2023-02-16T02:56:02;95908.72;;;-2.38;94.77
6136;BME280;24008;42.664;23.372;2023-02-16T02:58:52;95863.84;;;-2.82;94.50
6136;BME280;24008;42.664;23.372;2023-02-16T03:01:41;95939.69;;;-2.42;94.83
6136;BME280;24008;42.664;23.372;2023-02-16T03:04:10;95795.91;;;-3.41;94.92
6136;BME280;24008;42.664;23.372;2023-02-16T03:06:41;95916.06;;;-2.67;94.71
6136;BME280;24008;42.664;23.372;2023-02-16T03:09:10;95943.16;;;-2.49;94.63
6136;BME280;24008;42.664;23.372;2023-02-16T03:11:39;95944.16;;;-2.56;94.92
6136;BME280;24008;42.664;23.372;2023-02-16T03:14:30;95881.66;;;-2.98;94.17
6136;BME280;24008;42.664;23.372;2023-02-16T03:17:01;95943.38;;;-2.58;94.37
6136;BME280;24008;42.664;23.372;2023-02-16T03:19:47;95910.56;;;-2.84;94.65
6136;BME280;24008;42.664;23.372;2023-02-16T03:22:33;95946.94;;;-2.68;94.30
6136;BME280;24008;42.664;23.372;2023-02-16T03:25:18;95942.84;;;-2.72;94.38
6136;BME280;24008;42.664;23.372;2023-02-16T03:28:05;95889.97;;;-2.96;94.74
6136;BME280;24008;42.664;23.372;2023-02-16T03:30:53;95939.41;;;-2.67;95.03
6136;BME280;24008;42.664;23.372;2023-02-16T03:33:21;95877.75;;;-3.11;94.85
6136;BME280;24008;42.664;23.372;2023-02-16T03:35:49;95811.94;;;-3.51;95.10
6136;BME280;24008;42.664;23.372;2023-02-16T03:38:16;95863.13;;;-3.28;95.13
6136;BME280;24008;42.664;23.372;2023-02-16T03:40:44;95899.16;;;-2.98;95.21
6136;BME280;24008;42.664;23.372;2023-02-16T03:43:13;95853.13;;;-3.28;95.69
6136;BME280;24008;42.664;23.372;2023-02-16T03:45:41;95936.97;;;-2.71;95.58
6136;BME280;24008;42.664;23.372;2023-02-16T03:48:10;95931.16;;;-2.72;95.90
6136;BME280;24008;42.664;23.372;2023-02-16T03:50:37;95937.88;;;-2.74;95.83
6136;BME280;24008;42.664;23.372;2023-02-16T03:53:03;95859.66;;;-3.22;95.60
6136;BME280;24008;42.664;23.372;2023-02-16T03:55:34;95833.38;;;-3.41;95.18
6136;BME280;24008;42.664;23.372;2023-02-16T03:58:02;95923.09;;;-2.86;95.47
6136;BME280;24008;42.664;23.372;2023-02-16T04:00:29;95871.19;;;-3.15;95.11
6136;BME280;24008;42.664;23.372;2023-02-16T04:02:56;95933.75;;;-2.76;95.04
6136;BME280;24008;42.664;23.372;2023-02-16T04:05:25;95831.75;;;-3.42;95.04
6136;BME280;24008;42.664;23.372;2023-02-16T04:07:51;95933.88;;;-2.82;94.69
6136;BME280;24008;42.664;23.372;2023-02-16T04:10:18;95873.00;;;-3.23;94.59
6136;BME280;24008;42.664;23.372;2023-02-16T04:12:45;95887.75;;;-3.11;94.21
6136;BME280;24008;42.664;23.372;2023-02-16T04:15:13;95902.81;;;-3.14;94.17
6136;BME280;24008;42.664;23.372;2023-02-16T04:17:40;95927.31;;;-2.88;94.61
6136;BME280;24008;42.664;23.372;2023-02-16T04:20:08;95892.66;;;-3.05;94.68
6136;BME280;24008;42.664;23.372;2023-02-16T04:22:37;95924.06;;;-2.92;95.16
6136;BME280;24008;42.664;23.372;2023-02-16T04:25:05;95915.75;;;-2.92;94.82
6136;BME280;24008;42.664;23.372;2023-02-16T04:27:33;95889.47;;;-3.13;95.18
6136;BME280;24008;42.664;23.372;2023-02-16T04:30:00;95920.78;;;-2.94;95.19
6136;BME280;24008;42.664;23.372;2023-02-16T04:32:26;95916.47;;;-2.88;95.09
6136;BME280;24008;42.664;23.372;2023-02-16T04:34:53;95920.56;;;-2.84;96.11
6136;BME280;24008;42.664;23.372;2023-02-16T04:37:20;95871.19;;;-3.15;96.83
6136;BME280;24008;42.664;23.372;2023-02-16T04:39:48;95849.84;;;-3.31;97.29
6136;BME280;24008;42.664;23.372;2023-02-16T04:42:15;95944.75;;;-2.85;98.53
6136;BME280;24008;42.664;23.372;2023-02-16T04:44:42;95923.03;;;-2.83;99.04
6136;BME280;24008;42.664;23.372;2023-02-16T04:47:08;95830.91;;;-3.43;99.54
6136;BME280;24008;42.664;23.372;2023-02-16T04:49:35;95896.84;;;-3.07;99.69
6136;BME280;24008;42.664;23.372;2023-02-16T04:52:02;95926.53;;;-2.90;99.84
6136;BME280;24008;42.664;23.372;2023-02-16T04:54:29;95888.00;;;-3.23;100.00
6136;BME280;24008;42.664;23.372;2023-02-16T04:56:57;95868.44;;;-3.44;100.00
6136;BME280;24008;42.664;23.372;2023-02-16T04:59:24;95941.03;;;-3.06;100.00
6136;BME280;24008;42.664;23.372;2023-02-16T05:01:51;95904.88;;;-3.33;100.00
6136;BME280;24008;42.664;23.372;2023-02-16T05:04:18;95940.53;;;-3.24;100.00
6136;BME280;24008;42.664;23.372;2023-02-16T05:06:45;95948.16;;;-3.31;100.00
6136;BME280;24008;42.664;23.372;2023-02-16T05:09:12;95938.31;;;-3.38;99.25
6136;BME280;24008;42.664;23.372;2023-02-16T05:11:39;95922.88;;;-3.62;99.38
6136;BME280;24008;42.664;23.372;2023-02-16T05:14:28;95799.44;;;-4.42;98.80
6136;BME280;24008;42.664;23.372;2023-02-16T05:17:08;95912.41;;;-3.80;98.74
6136;BME280;24008;42.664;23.372;2023-02-16T05:19:34;95915.81;;;-3.86;98.42
6136;BME280;24008;42.664;23.372;2023-02-16T05:22:02;95952.09;;;-3.64;98.27
6136;BME280;24008;42.664;23.372;2023-02-16T05:24:28;95939.72;;;-3.71;98.76
6136;BME280;24008;42.664;23.372;2023-02-16T05:26:55;95925.72;;;-3.80;98.58
6136;BME280;24008;42.664;23.372;2023-02-16T05:29:22;95955.25;;;-3.54;98.80
6136;BME280;24008;42.664;23.372;2023-02-16T05:31:51;95928.03;;;-3.69;98.97
6136;BME280;24008;42.664;23.372;2023-02-16T05:34:18;95921.31;;;-3.66;99.49
6136;BME280;24008;42.664;23.372;2023-02-16T05:36:45;95941.75;;;-3.45;99.44
6136;BME280;24008;42.664;23.372;2023-02-16T05:39:12;95926.06;;;-3.52;99.58
6136;BME280;24008;42.664;23.372;2023-02-16T05:41:38;95966.25;;;-3.16;100.00
6136;BME280;24008;42.664;23.372;2023-02-16T05:44:06;95828.97;;;-3.72;100.00
6136;BME280;24008;42.664;23.372;2023-02-16T05:46:34;95967.94;;;-2.37;100.00
6136;BME280;24008;42.664;23.372;2023-02-16T05:49:21;95946.00;;;-2.26;99.77
6136;BME280;24008;42.664;23.372;2023-02-16T05:51:50;95950.38;;;-2.35;98.28
6136;BME280;24008;42.664;23.372;2023-02-16T05:54:17;95971.59;;;-2.14;97.22
6136;BME280;24008;42.664;23.372;2023-02-16T05:56:44;95960.69;;;-2.10;96.65
6136;BME280;24008;42.664;23.372;2023-02-16T05:59:12;95962.09;;;-2.00;95.20
6136;BME280;24008;42.664;23.372;2023-02-16T06:01:40;95955.16;;;-1.89;94.72
6136;BME280;24008;42.664;23.372;2023-02-16T06:04:08;95972.56;;;-1.83;93.12
6136;BME280;24008;42.664;23.372;2023-02-16T06:06:37;95965.53;;;-1.69;93.06
6136;BME280;24008;42.664;23.372;2023-02-16T06:09:04;95916.59;;;-1.82;92.21
6136;BME280;24008;42.664;23.372;2023-02-16T06:11:31;95971.78;;;-1.19;90.82
6136;BME280;24008;42.664;23.372;2023-02-16T06:14:01;95919.03;;;-1.47;89.27
6136;BME280;24008;42.664;23.372;2023-02-16T06:16:28;95888.47;;;-1.61;87.89
6136;BME280;24008;42.664;23.372;2023-02-16T06:18:55;95980.44;;;-0.98;87.06
6136;BME280;24008;42.664;23.372;2023-02-16T06:21:23;95956.22;;;-0.99;87.31
6136;BME280;24008;42.664;23.372;2023-02-16T06:23:51;95958.13;;;-0.78;86.84
6136;BME280;24008;42.664;23.372;2023-02-16T06:26:18;95889.59;;;-0.81;86.22
6136;BME280;24008;42.664;23.372;2023-02-16T06:28:45;95986.97;;;0.22;85.25
6136;BME280;24008;42.664;23.372;2023-02-16T06:31:11;95854.88;;;-0.13;82.91
6136;BME280;24008;42.664;23.372;2023-02-16T06:33:38;95991.97;;;1.47;79.36
6136;BME280;24008;42.664;23.372;2023-02-16T06:36:06;95923.78;;;1.73;75.96
6136;BME280;24008;42.664;23.372;2023-02-16T06:38:33;96004.53;;;2.57;72.54
6136;BME280;24008;42.664;23.372;2023-02-16T06:41:01;95992.06;;;2.95;70.22
6136;BME280;24008;42.664;23.372;2023-02-16T06:43:28;96003.06;;;2.73;69.80
6136;BME280;24008;42.664;23.372;2023-02-16T06:45:54;95945.50;;;2.41;70.08
6136;BME280;24008;42.664;23.372;2023-02-16T06:48:21;95995.91;;;3.03;69.25
6136;BME280;24008;42.664;23.372;2023-02-16T06:50:48;95995.94;;;3.80;67.65
6136;BME280;24008;42.664;23.372;2023-02-16T06:53:15;95917.00;;;4.09;65.48
6136;BME280;24008;42.664;23.372;2023-02-16T06:55:41;95998.00;;;5.13;63.07
6136;BME280;24008;42.664;23.372;2023-02-16T06:58:10;95989.81;;;5.40;62.60
6136;BME280;24008;42.664;23.372;2023-02-16T07:00:37;95961.41;;;5.18;60.29
6136;BME280;24008;42.664;23.372;2023-02-16T07:03:04;95998.59;;;5.51;61.18
6136;BME280;24008;42.664;23.372;2023-02-16T07:05:30;95776.22;;;4.08;60.33
6136;BME280;24008;42.664;23.372;2023-02-16T07:07:57;95980.53;;;5.24;60.94
6136;BME280;24008;42.664;23.372;2023-02-16T07:10:24;95968.13;;;5.19;59.56
6136;BME280;24008;42.664;23.372;2023-02-16T07:12:51;95990.06;;;4.86;61.34
6136;BME280;24008;42.664;23.372;2023-02-16T07:15:19;95987.22;;;5.42;59.37
6136;BME280;24008;42.664;23.372;2023-02-16T07:17:46;95986.03;;;5.65;58.56
6136;BME280;24008;42.664;23.372;2023-02-16T07:20:13;95926.44;;;5.56;57.89
6136;BME280;24008;42.664;23.372;2023-02-16T07:22:39;95971.56;;;6.60;56.09
6136;BME280;24008;42.664;23.372;2023-02-16T07:25:06;95967.50;;;7.30;53.02
6136;BME280;24008;42.664;23.372;2023-02-16T07:27:33;95971.50;;;7.48;52.97
6136;BME280;24008;42.664;23.372;2023-02-16T07:30:00;95894.53;;;7.58;51.59
6136;BME280;24008;42.664;23.372;2023-02-16T07:32:29;95965.63;;;7.74;50.02
6136;BME280;24008;42.664;23.372;2023-02-16T07:34:56;95823.63;;;7.26;50.00
6136;BME280;24008;42.664;23.372;2023-02-16T07:37:23;95960.34;;;8.33;50.09
6136;BME280;24008;42.664;23.372;2023-02-16T07:39:50;95910.13;;;8.47;47.85
6136;BME280;24008;42.664;23.372;2023-02-16T07:42:17;95957.88;;;8.71;48.08
6136;BME280;24008;42.664;23.372;2023-02-16T07:44:44;95954.63;;;8.69;47.33
6136;BME280;24008;42.664;23.372;2023-02-16T07:47:11;95863.53;;;8.45;46.30
6136;BME280;24008;42.664;23.372;2023-02-16T07:49:40;95864.16;;;7.97;47.53
6136;BME280;24008;42.664;23.372;2023-02-16T07:52:07;95808.34;;;8.06;45.97
6136;BME280;24008;42.664;23.372;2023-02-16T07:54:34;95950.88;;;9.25;47.14
6136;BME280;24008;42.664;23.372;2023-02-16T07:57:01;95966.09;;;9.26;46.79
6136;BME280;24008;42.664;23.372;2023-02-16T07:59:29;95696.44;;;8.05;45.59
6136;BME280;24008;42.664;23.372;2023-02-16T08:01:57;95966.53;;;9.69;45.17
6136;BME280;24008;42.664;23.372;2023-02-16T08:04:29;96005.19;;;9.52;46.73
6136;BME280;24008;42.664;23.372;2023-02-16T08:07:12;95964.72;;;9.59;45.80
6136;BME280;24008;42.664;23.372;2023-02-16T08:09:40;96003.00;;;9.71;45.94
6136;BME280;24008;42.664;23.372;2023-02-16T08:12:07;95969.03;;;10.31;44.96
6136;BME280;24008;42.664;23.372;2023-02-16T08:14:35;95579.97;;;7.57;45.33
6136;BME280;24008;42.664;23.372;2023-02-16T08:17:02;95964.28;;;10.14;44.26
6136;BME280;24008;42.664;23.372;2023-02-16T08:19:30;95689.06;;;8.63;43.59
6136;BME280;24008;42.664;23.372;2023-02-16T08:21:56;95977.63;;;10.54;44.14
6136;BME280;24008;42.664;23.372;2023-02-16T08:24:25;95551.38;;;8.16;44.14
6136;BME280;24008;42.664;23.372;2023-02-16T08:26:52;95977.84;;;11.21;42.50
6136;BME280;24008;42.664;23.372;2023-02-16T08:29:20;95976.44;;;11.17;43.22
6136;BME280;24008;42.664;23.372;2023-02-16T08:31:48;95894.72;;;10.69;42.23
6136;BME280;24008;42.664;23.372;2023-02-16T08:34:16;95981.88;;;11.24;42.69
6136;BME280;24008;42.664;23.372;2023-02-16T08:36:45;95893.34;;;10.41;44.14
6136;BME280;24008;42.664;23.372;2023-02-16T08:39:14;95981.50;;;10.95;43.71
6136;BME280;24008;42.664;23.372;2023-02-16T08:41:43;95994.66;;;11.12;43.88
6136;BME280;24008;42.664;23.372;2023-02-16T08:44:11;95978.50;;;11.23;43.46
6136;BME280;24008;42.664;23.372;2023-02-16T08:46:39;95879.16;;;10.72;43.03
6136;BME280;24008;42.664;23.372;2023-02-16T08:49:08;95975.53;;;11.63;42.26
6136;BME280;24008;42.664;23.372;2023-02-16T08:51:39;95888.81;;;11.58;41.14
6136;BME280;24008;42.664;23.372;2023-02-16T08:54:06;95988.41;;;12.28;40.97
6136;BME280;24008;42.664;23.372;2023-02-16T08:56:34;95981.13;;;12.44;40.40
6136;BME280;24008;42.664;23.372;2023-02-16T08:59:03;95971.47;;;11.94;40.52
6136;BME280;24008;42.664;23.372;2023-02-16T09:01:30;95970.31;;;11.75;42.13
6136;BME280;24008;42.664;23.372;2023-02-16T09:03:57;95871.94;;;11.55;40.98
6136;BME280;24008;42.664;23.372;2023-02-16T09:06:23;95982.75;;;12.02;41.27
6136;BME280;24008;42.664;23.372;2023-02-16T09:08:51;95687.09;;;10.98;40.09
6136;BME280;24008;42.664;23.372;2023-02-16T09:11:18;95970.75;;;12.46;40.12
6136;BME280;24008;42.664;23.372;2023-02-16T09:13:45;95959.66;;;12.45;40.29
6136;BME280;24008;42.664;23.372;2023-02-16T09:16:21;95803.16;;;11.51;39.99
6136;BME280;24008;42.664;23.372;2023-02-16T09:18:48;95928.63;;;12.80;38.99
6136;BME280;24008;42.664;23.372;2023-02-16T09:21:17;95905.72;;;12.88;39.03
6136;BME280;24008;42.664;23.372;2023-02-16T09:23:46;95804.56;;;12.60;38.15
6136;BME280;24008;42.664;23.372;2023-02-16T09:26:15;95953.44;;;13.63;37.34
6136;BME280;24008;42.664;23.372;2023-02-16T09:28:42;95788.69;;;12.25;38.17
6136;BME280;24008;42.664;23.372;2023-02-16T09:31:10;95944.63;;;14.05;36.86
6136;BME280;24008;42.664;23.372;2023-02-16T09:33:39;95761.34;;;13.17;36.32
6136;BME280;24008;42.664;23.372;2023-02-16T09:36:08;95940.84;;;14.00;36.83
6136;BME280;24008;42.664;23.372;2023-02-16T09:38:36;95943.63;;;13.47;37.91
6136;BME280;24008;42.664;23.372;2023-02-16T09:41:07;95840.53;;;12.70;37.57
6136;BME280;24008;42.664;23.372;2023-02-16T09:43:42;95785.00;;;12.39;37.82
6136;BME280;24008;42.664;23.372;2023-02-16T09:46:12;95852.38;;;13.13;37.25
6136;BME280;24008;42.664;23.372;2023-02-16T09:48:44;95931.13;;;13.63;37.54
6136;BME280;24008;42.664;23.372;2023-02-16T09:51:15;95931.00;;;13.14;38.47
6136;BME280;24008;42.664;23.372;2023-02-16T09:53:45;95937.28;;;13.21;37.90
6136;BME280;24008;42.664;23.372;2023-02-16T09:56:25;95754.63;;;12.13;37.82
6136;BME280;24008;42.664;23.372;2023-02-16T09:58:57;95849.22;;;12.58;38.54
6136;BME280;24008;42.664;23.372;2023-02-16T10:01:32;95854.53;;;12.45;38.75
6136;BME280;24008;42.664;23.372;2023-02-16T10:04:18;95886.31;;;12.95;38.25
6136;BME280;24008;42.664;23.372;2023-02-16T10:06:58;95914.53;;;13.37;38.80
6136;BME280;24008;42.664;23.372;2023-02-16T10:09:29;95905.84;;;13.78;38.17
6136;BME280;24008;42.664;23.372;2023-02-16T10:12:01;95884.00;;;13.93;36.78
6136;BME280;24008;42.664;23.372;2023-02-16T10:14:32;95893.88;;;13.98;36.36
6136;BME280;24008;42.664;23.372;2023-02-16T10:17:12;95811.81;;;13.37;36.21
6136;BME280;24008;42.664;23.372;2023-02-16T10:19:45;95897.31;;;14.47;35.37
6136;BME280;24008;42.664;23.372;2023-02-16T10:22:25;95872.66;;;14.73;35.00
6136;BME280;24008;42.664;23.372;2023-02-16T10:24:59;95880.72;;;14.97;34.35
6136;BME280;24008;42.664;23.372;2023-02-16T10:27:34;95883.78;;;15.10;34.67
6136;BME280;24008;42.664;23.372;2023-02-16T10:30:10;95882.16;;;15.46;34.14
6136;BME280;24008;42.664;23.372;2023-02-16T10:32:43;95863.63;;;15.70;32.77
6136;BME280;24008;42.664;23.372;2023-02-16T10:35:21;95799.44;;;14.95;32.98
6136;BME280;24008;42.664;23.372;2023-02-16T10:37:58;95851.13;;;15.21;33.82
6136;BME280;24008;42.664;23.372;2023-02-16T10:40:33;95871.31;;;15.16;33.73
6136;BME280;24008;42.664;23.372;2023-02-16T10:43:06;95875.38;;;14.71;34.95
6136;BME280;24008;42.664;23.372;2023-02-16T10:45:43;95756.28;;;13.06;36.37
6136;BME280;24008;42.664;23.372;2023-02-16T10:48:12;95817.63;;;12.78;37.11
6136;BME280;24008;42.664;23.372;2023-02-16T10:50:42;95382.34;;;8.76;39.33
6136;BME280;24008;42.664;23.372;2023-02-16T10:53:17;95866.16;;;11.09;41.39
6136;BME280;24008;42.664;23.372;2023-02-16T10:55:45;95870.88;;;10.69;42.17
6136;BME280;24008;42.664;23.372;2023-02-16T10:58:18;95709.66;;;9.21;44.13
6136;BME280;24008;42.664;23.372;2023-02-16T11:00:53;95867.91;;;10.16;44.17
6136;BME280;24008;42.664;23.372;2023-02-16T11:03:23;95852.88;;;10.00;44.46
6136;BME280;24008;42.664;23.372;2023-02-16T11:05:52;95663.72;;;7.99;45.39
6136;BME280;24008;42.664;23.372;2023-02-16T11:08:19;95852.84;;;9.16;46.43
6136;BME280;24008;42.664;23.372;2023-02-16T11:10:50;95771.13;;;8.43;47.71
6136;BME280;24008;42.664;23.372;2023-02-16T11:13:24;95247.53;;;5.06;47.84
6136;BME280;24008;42.664;23.372;2023-02-16T11:15:53;95724.09;;;8.22;47.43
6136;BME280;24008;42.664;23.372;2023-02-16T11:18:27;95837.66;;;9.02;47.91
6136;BME280;24008;42.664;23.372;2023-02-16T11:20:56;95213.69;;;5.20;47.30
6136;BME280;24008;42.664;23.372;2023-02-16T11:23:25;95834.38;;;9.13;47.97
6136;BME280;24008;42.664;23.372;2023-02-16T11:25:54;95841.09;;;9.26;46.89
6136;BME280;24008;42.664;23.372;2023-02-16T11:28:28;95777.59;;;8.85;46.64
6136;BME280;24008;42.664;23.372;2023-02-16T11:31:08;95710.50;;;8.36;47.44
6136;BME280;24008;42.664;23.372;2023-02-16T11:33:37;95753.06;;;8.59;47.31
6136;BME280;24008;42.664;23.372;2023-02-16T11:36:19;95819.81;;;9.38;47.42
6136;BME280;24008;42.664;23.372;2023-02-16T11:38:55;95820.38;;;9.55;45.64
6136;BME280;24008;42.664;23.372;2023-02-16T11:41:24;95820.75;;;9.61;45.77
6136;BME280;24008;42.664;23.372;2023-02-16T11:43:52;95662.84;;;8.61;45.83
6136;BME280;24008;42.664;23.372;2023-02-16T11:46:20;95705.31;;;8.86;45.61
6136;BME280;24008;42.664;23.372;2023-02-16T11:48:48;95820.81;;;9.49;46.23
6136;BME280;24008;42.664;23.372;2023-02-16T11:51:30;95761.50;;;9.21;46.11
6136;BME280;24008;42.664;23.372;2023-02-16T11:54:03;95805.81;;;9.68;45.99
6136;BME280;24008;42.664;23.372;2023-02-16T11:56:33;95726.41;;;9.25;45.32
6136;BME280;24008;42.664;23.372;2023-02-16T11:59:12;95413.31;;;7.27;45.57
6136;BME280;24008;42.664;23.372;2023-02-16T12:04:56;95787.06;;;9.80;44.55
6136;BME280;24008;42.664;23.372;2023-02-16T12:07:35;95789.63;;;9.80;44.67
6136;BME280;24008;42.664;23.372;2023-02-16T12:10:08;95706.03;;;9.36;44.62
6136;BME280;24008;42.664;23.372;2023-02-16T12:12:42;95783.94;;;9.77;44.54
6136;BME280;24008;42.664;23.372;2023-02-16T12:15:17;95775.78;;;9.71;45.02
6136;BME280;24008;42.664;23.372;2023-02-16T12:18:13;95638.00;;;8.89;45.50
6136;BME280;24008;42.664;23.372;2023-02-16T12:20:51;95778.97;;;9.86;45.41
6136;BME280;24008;42.664;23.372;2023-02-16T12:23:34;95726.34;;;9.72;45.42
6136;BME280;24008;42.664;23.372;2023-02-16T12:26:29;95734.38;;;9.79;44.81
6136;BME280;24008;42.664;23.372;2023-02-16T12:29:10;95777.53;;;10.06;44.30
6136;BME280;24008;42.664;23.372;2023-02-16T12:31:52;95720.97;;;9.88;43.65
6136;BME280;24008;42.664;23.372;2023-02-16T12:34:26;95744.78;;;10.00;43.97
6136;BME280;24008;42.664;23.372;2023-02-16T12:36:59;95630.41;;;9.35;43.64
6136;BME280;24008;42.664;23.372;2023-02-16T12:39:40;95665.91;;;9.73;43.18
6136;BME280;24008;42.664;23.372;2023-02-16T12:42:22;95743.22;;;10.21;43.47
6136;BME280;24008;42.664;23.372;2023-02-16T12:44:53;95648.69;;;9.53;43.26
6136;BME280;24008;42.664;23.372;2023-02-16T12:47:25;95735.72;;;10.07;43.18
6136;BME280;24008;42.664;23.372;2023-02-16T12:49:57;95731.13;;;10.12;43.91
6136;BME280;24008;42.664;23.372;2023-02-16T12:52:32;95696.16;;;10.01;43.53
6136;BME280;24008;42.664;23.372;2023-02-16T12:55:14;95607.59;;;9.56;42.96
6136;BME280;24008;42.664;23.372;2023-02-16T12:57:46;95672.91;;;9.93;43.42
6136;BME280;24008;42.664;23.372;2023-02-16T13:00:20;95464.25;;;8.47;43.52
6136;BME280;24008;42.664;23.372;2023-02-16T13:02:53;95722.09;;;10.30;43.08
6136;BME280;24008;42.664;23.372;2023-02-16T13:05:24;95706.88;;;10.40;42.73
6136;BME280;24008;42.664;23.372;2023-02-16T13:07:59;95701.31;;;10.46;42.52
6136;BME280;24008;42.664;23.372;2023-02-16T13:10:34;95631.13;;;9.94;43.16
6136;BME280;24008;42.664;23.372;2023-02-16T13:13:04;95706.75;;;10.53;42.59
6136;BME280;24008;42.664;23.372;2023-02-16T13:15:37;95702.34;;;10.55;42.36
6136;BME280;24008;42.664;23.372;2023-02-16T13:18:10;95698.97;;;10.54;42.24
6136;BME280;24008;42.664;23.372;2023-02-16T13:20:45;95712.94;;;10.61;42.33
6136;BME280;24008;42.664;23.372;2023-02-16T13:23:31;95563.91;;;9.83;41.87
6136;BME280;24008;42.664;23.372;2023-02-16T13:26:09;95692.34;;;10.63;42.04
6136;BME280;24008;42.664;23.372;2023-02-16T13:29:00;95694.78;;;10.64;42.17